createdAt,value
2019-03-29T00:01:57.572Z,9.15
2019-03-29T00:07:18.710Z,9.19
2019-03-29T00:12:40.200Z,9.18
2019-03-29T00:18:01.360Z,9.11
2019-03-29T00:23:23.107Z,9.16
2019-03-29T00:28:44.050Z,9.19
2019-03-29T00:34:04.871Z,9.21
2019-03-29T00:39:25.515Z,9.17
2019-03-29T00:44:46.758Z,9.19
2019-03-29T00:50:08.153Z,9.12
2019-03-29T00:55:28.730Z,9.17
2019-03-29T01:00:49.877Z,9.16
2019-03-29T01:06:10.836Z,9.23
2019-03-29T01:11:32.021Z,9.23
2019-03-29T01:16:53.868Z,9.22
2019-03-29T01:22:14.908Z,9.23
2019-03-29T01:27:36.253Z,9.25
2019-03-29T01:32:57.381Z,9.22
2019-03-29T01:38:22.138Z,9.13
2019-03-29T01:43:41.440Z,9.13
2019-03-29T01:49:02.924Z,9.09
2019-03-29T01:54:23.949Z,9.09
2019-03-29T01:59:45.062Z,9.10
2019-03-29T02:05:06.200Z,9.14
2019-03-29T02:10:27.133Z,9.22
2019-03-29T02:15:48.316Z,9.22
2019-03-29T02:21:09.665Z,9.21
2019-03-29T02:26:31.004Z,9.26
2019-03-29T02:31:52.326Z,9.20
2019-03-29T02:37:13.503Z,9.13
2019-03-29T02:42:34.536Z,9.32
2019-03-29T02:47:55.927Z,9.21
2019-03-29T02:53:16.892Z,9.12
2019-03-29T02:58:38.441Z,9.10
2019-03-29T03:03:59.614Z,9.10
2019-03-29T03:09:20.783Z,9.05
2019-03-29T03:14:42.133Z,8.91
2019-03-29T03:20:04.638Z,9.02
2019-03-29T03:25:25.495Z,8.92
2019-03-29T03:30:46.621Z,8.87
2019-03-29T03:36:07.718Z,9.05
2019-03-29T03:41:28.956Z,8.98
2019-03-29T03:46:51.170Z,9.01
2019-03-29T03:52:12.626Z,8.88
2019-03-29T03:57:34.566Z,8.80
2019-03-29T04:02:55.719Z,8.93
2019-03-29T04:08:17.019Z,9.03
2019-03-29T04:13:38.011Z,8.93
2019-03-29T04:18:58.840Z,9.05
2019-03-29T04:24:19.941Z,9.20
2019-03-29T04:29:41.373Z,9.13
2019-03-29T04:35:02.580Z,9.01
2019-03-29T04:40:23.759Z,9.06
2019-03-29T04:45:44.816Z,9.02
2019-03-29T04:51:05.938Z,8.88
2019-03-29T04:56:27.042Z,8.99
2019-03-29T05:01:48.078Z,8.87
2019-03-29T05:07:09.329Z,8.74
2019-03-29T05:12:30.636Z,8.81
2019-03-29T05:17:52.013Z,8.77
2019-03-29T05:23:13.117Z,8.69
2019-03-29T05:28:35.527Z,8.73
2019-03-29T05:33:56.732Z,8.90
2019-03-29T05:39:17.969Z,8.88
2019-03-29T05:44:40.782Z,8.87
2019-03-29T05:50:01.496Z,8.89
2019-03-29T05:55:32.409Z,9.03
2019-03-29T06:00:45.256Z,9.04
2019-03-29T06:06:06.043Z,9.06
2019-03-29T06:11:26.725Z,9.38
2019-03-29T06:16:47.650Z,9.49
2019-03-29T06:22:08.637Z,9.44
2019-03-29T06:27:29.759Z,9.52
2019-03-29T06:32:51.314Z,9.67
2019-03-29T06:38:13.281Z,9.57
2019-03-29T06:43:34.136Z,9.60
2019-03-29T06:48:55.132Z,9.75
2019-03-29T06:54:15.680Z,9.95
2019-03-29T06:59:36.811Z,9.89
2019-03-29T07:04:57.655Z,10.09
2019-03-29T07:10:18.925Z,9.99
2019-03-29T07:15:41.200Z,10.11
2019-03-29T07:21:02.029Z,10.34
2019-03-29T07:26:23.083Z,10.44
2019-03-29T07:31:44.131Z,10.36
2019-03-29T07:37:05.998Z,10.61
2019-03-29T07:42:26.793Z,10.71
2019-03-29T07:47:47.704Z,10.87
2019-03-29T07:53:08.639Z,10.83
2019-03-29T07:58:29.876Z,10.85
2019-03-29T08:03:51.420Z,11.03
2019-03-29T08:09:22.144Z,11.17
2019-03-29T08:14:36.266Z,11.21
2019-03-29T08:20:24.554Z,11.27
2019-03-29T08:25:20.073Z,11.45
2019-03-29T08:30:41.063Z,11.47
2019-03-29T08:36:02.530Z,11.72
2019-03-29T08:41:23.536Z,11.78
2019-03-29T08:46:44.996Z,12.05
2019-03-29T08:52:06.104Z,12.16
2019-03-29T08:57:27.302Z,12.35
2019-03-29T09:02:48.497Z,12.26
2019-03-29T09:08:09.809Z,13.09
2019-03-29T09:13:30.969Z,13.44
2019-03-29T09:18:52.105Z,13.66
2019-03-29T09:24:21.981Z,13.68
2019-03-29T09:29:36.105Z,13.78
2019-03-29T09:34:57.310Z,14.07
2019-03-29T09:40:18.917Z,14.26
2019-03-29T09:45:41.310Z,13.74
2019-03-29T09:51:02.442Z,14.03
2019-03-29T09:56:37.508Z,14.29
2019-03-29T10:01:45.892Z,14.74
2019-03-29T10:07:08.198Z,14.63
2019-03-29T10:12:42.275Z,15.19
2019-03-29T10:17:51.887Z,15.15
2019-03-29T10:23:12.578Z,15.52
2019-03-29T10:28:33.711Z,16.02
2019-03-29T10:33:54.674Z,16.25
2019-03-29T10:39:16.708Z,16.00
2019-03-29T10:44:37.390Z,16.28
2019-03-29T10:49:58.357Z,16.46
2019-03-29T10:55:19.630Z,16.80
2019-03-29T11:00:41.129Z,16.18
2019-03-29T11:06:01.945Z,16.30
2019-03-29T11:11:22.737Z,16.67
2019-03-29T11:16:43.900Z,16.88
2019-03-29T11:22:04.928Z,16.98
2019-03-29T11:27:25.653Z,17.09
2019-03-29T11:32:46.668Z,16.91
2019-03-29T11:38:07.400Z,17.11
2019-03-29T11:43:28.925Z,16.79
2019-03-29T11:48:49.711Z,17.21
2019-03-29T11:54:10.858Z,17.06
2019-03-29T11:59:32.059Z,16.60
2019-03-29T12:04:53.499Z,16.86
2019-03-29T12:10:14.532Z,16.99
2019-03-29T12:15:35.743Z,17.23
2019-03-29T12:20:56.952Z,17.01
2019-03-29T12:26:18.130Z,17.77
2019-03-29T12:31:38.848Z,16.51
2019-03-29T12:36:59.998Z,16.54
2019-03-29T12:42:21.163Z,18.43
2019-03-29T12:47:42.047Z,18.37
2019-03-29T12:53:03.137Z,19.77
2019-03-29T12:58:23.894Z,18.78
2019-03-29T13:03:44.805Z,17.83
2019-03-29T13:09:07.004Z,17.44
2019-03-29T13:14:28.026Z,16.97
2019-03-29T13:19:50.218Z,17.34
2019-03-29T13:25:11.719Z,18.14
2019-03-29T13:30:33.962Z,20.06
2019-03-29T13:35:55.238Z,16.81
2019-03-29T13:41:16.401Z,18.82
2019-03-29T13:46:37.566Z,19.79
2019-03-29T13:51:59.019Z,18.39
2019-03-29T13:57:20.217Z,18.16
2019-03-29T14:02:41.175Z,18.56
2019-03-29T14:08:02.328Z,19.39
2019-03-29T14:13:24.515Z,21.15
2019-03-29T14:18:45.852Z,23.44
2019-03-29T14:24:06.756Z,22.20
2019-03-29T14:29:27.896Z,23.23
2019-03-29T14:34:48.814Z,24.09
2019-03-29T14:40:10.527Z,24.85
2019-03-29T14:45:31.687Z,24.20
2019-03-29T14:50:52.818Z,24.77
2019-03-29T14:56:14.024Z,24.70
2019-03-29T15:01:35.181Z,26.52
2019-03-29T15:06:56.656Z,26.23
2019-03-29T15:12:17.531Z,25.55
2019-03-29T15:17:38.789Z,26.37
2019-03-29T15:22:59.769Z,26.19
2019-03-29T15:28:20.922Z,26.45
2019-03-29T15:33:42.159Z,26.63
2019-03-29T15:39:04.031Z,26.10
2019-03-29T15:44:26.176Z,26.16
2019-03-29T15:49:55.782Z,26.87
2019-03-29T15:55:11.446Z,26.38
2019-03-29T16:00:32.640Z,26.19
2019-03-29T16:05:53.595Z,26.89
2019-03-29T16:11:17.401Z,26.97
2019-03-29T16:16:59.904Z,26.72
2019-03-29T16:22:20.980Z,26.49
2019-03-29T16:27:42.221Z,26.57
2019-03-29T16:33:03.600Z,26.79
2019-03-29T16:38:24.517Z,26.01
2019-03-29T16:43:45.346Z,26.11
2019-03-29T16:49:06.071Z,25.71
2019-03-29T16:54:27.499Z,23.70
2019-03-29T16:59:48.631Z,23.00
2019-03-29T17:05:10.471Z,23.08
2019-03-29T17:10:31.709Z,22.65
2019-03-29T17:16:01.601Z,22.11
2019-03-29T17:21:15.811Z,20.72
2019-03-29T17:26:36.625Z,19.73
2019-03-29T17:31:57.618Z,17.60
2019-03-29T17:37:19.072Z,15.99
2019-03-29T17:42:40.282Z,15.24
2019-03-29T17:48:01.501Z,14.37
2019-03-29T17:53:22.603Z,13.67
2019-03-29T17:58:43.541Z,13.48
2019-03-29T18:04:04.735Z,12.99
2019-03-29T18:09:26.005Z,12.72
2019-03-29T18:14:46.851Z,12.88
2019-03-29T18:20:08.385Z,12.53
2019-03-29T18:25:29.256Z,12.32
2019-03-29T18:30:50.599Z,12.25
2019-03-29T18:36:11.830Z,11.93
2019-03-29T18:41:33.198Z,11.74
2019-03-29T18:46:53.990Z,11.62
2019-03-29T18:52:15.142Z,11.38
2019-03-29T18:57:36.301Z,11.30
2019-03-29T19:02:57.345Z,11.10
2019-03-29T19:08:18.739Z,11.05
2019-03-29T19:13:39.492Z,11.10
2019-03-29T19:19:10.013Z,10.91
2019-03-29T19:24:23.390Z,10.70
2019-03-29T19:29:44.538Z,10.62
2019-03-29T19:35:06.244Z,10.48
2019-03-29T19:40:27.369Z,10.59
2019-03-29T19:45:49.156Z,10.62
2019-03-29T19:51:09.706Z,10.43
2019-03-29T19:56:31.058Z,10.52
2019-03-29T20:01:53.227Z,10.51
2019-03-29T20:07:14.393Z,10.52
2019-03-29T20:19:12.542Z,10.09
2019-03-29T20:24:33.948Z,10.16
2019-03-29T20:29:55.355Z,10.13
2019-03-29T20:35:16.399Z,9.96
2019-03-29T20:40:37.266Z,9.68
2019-03-29T20:46:04.695Z,9.35
2019-03-29T20:51:25.410Z,9.10
2019-03-29T20:56:46.495Z,8.95
2019-03-29T21:02:07.435Z,8.99
2019-03-29T21:07:28.471Z,8.97
2019-03-29T21:12:49.184Z,8.97
2019-03-29T21:18:10.101Z,8.96
2019-03-29T21:23:30.889Z,8.92
2019-03-29T21:28:53.047Z,8.78
2019-03-29T21:34:14.144Z,8.82
2019-03-29T21:39:35.421Z,8.63
2019-03-29T21:44:56.337Z,8.72
2019-03-29T21:50:17.955Z,8.41
2019-03-29T21:55:38.658Z,8.40
2019-03-29T22:00:59.287Z,8.49
2019-03-29T22:06:20.497Z,8.44
2019-03-29T22:11:41.485Z,8.45
2019-03-29T22:17:02.785Z,8.37
2019-03-29T22:22:23.836Z,8.19
2019-03-29T22:27:45.022Z,8.03
2019-03-29T22:33:06.288Z,7.99
2019-03-29T22:38:27.540Z,7.96
2019-03-29T22:43:49.077Z,7.84
2019-03-29T22:49:10.036Z,7.68
2019-03-29T22:54:31.175Z,7.86
2019-03-29T22:59:52.224Z,7.71
2019-03-29T23:05:13.330Z,7.76
2019-03-29T23:10:34.194Z,7.90
2019-03-29T23:16:03.198Z,8.06
2019-03-29T23:21:24.435Z,7.99
2019-03-29T23:26:45.327Z,7.90
2019-03-29T23:32:06.625Z,7.95
2019-03-29T23:37:27.679Z,7.90
2019-03-29T23:42:48.810Z,7.76
2019-03-29T23:48:10.229Z,7.77
2019-03-29T23:53:31.174Z,7.96
2019-03-29T23:58:51.960Z,7.75
